Britney Lee — WDC2895 — position and weather

sailwx.info

Track history (hours):
 
Tides and Currents Weather Stations Pressure Air Temp Water Temp Dewpoint Dewpoint Depression Visibility Wind Speed Wind Dir Waves Ship Positions

Britney Lee

Owner: Western Rivers Boat Management, Inc., Paducah, KY. More information available from US FCC via Universal Licensing System and Coast Guard Vessel Documentation Center.

Last reported at 2016-Apr-28 04:24 UTC. Time now 2016-Apr-30 07:09 UTC.
Position N 29°58' W 090°14'.

Length 44 m; draft 3 m.

Type: Tow > 200 m length. MMSI: 367129650.

Date/timePositionNaut miles runAvg speedWind from/ knotsBaromVisibWave heightAir tempDewpointWater temp
2016-Apr-28 04:24N 29°58' W 090°14'3 3.7
2016-Apr-28 03:31N 29°56' W 090°11'0 0.3
2016-Apr-28 02:31N 29°56' W 090°10'4 4.1
2016-Apr-28 01:33N 29°55' W 090°06'5 4.7
2016-Apr-28 00:33N 29°57' W 090°02'6 5.3
2016-Apr-27 23:29N 29°55' W 089°56'3 2.7
2016-Apr-27 22:26N 29°53' W 089°58'4 4.0
2016-Apr-27 21:33N 29°50' W 089°60'0 0.0
2016-Apr-27 20:33N 29°50' W 089°60'1 0.9
2016-Apr-27 19:12N 29°49' W 090°00'6 0.3
2016-Apr-27 01:33N 29°43' W 089°59'7 7.0
2016-Apr-27 00:33N 29°50' W 089°60'6 5.6
2016-Apr-26 23:32N 29°53' W 089°54'7 7.6
2016-Apr-26 22:33N 29°57' W 090°02'6 6.1
2016-Apr-26 21:33N 29°55' W 090°08'5 4.9
2016-Apr-26 20:33N 29°57' W 090°13'  
2016-Apr-24 14:29N 31°41' W 091°24'7 7.7
2016-Apr-24 13:33N 31°48' W 091°21'14 6.9
2016-Apr-24 11:33N 31°58' W 091°11'7 7.5
2016-Apr-24 10:33N 32°02' W 091°04'6 5.6
2016-Apr-24 09:33N 32°07' W 091°07'6 5.7
2016-Apr-24 08:33N 32°09' W 091°00'8 7.9
2016-Apr-24 07:33N 32°16' W 090°57'4 4.4
2016-Apr-24 06:33N 32°21' W 090°57'6 6.2
2016-Apr-24 05:34N 32°26' W 091°02'7 6.7
2016-Apr-24 04:33N 32°32' W 091°06'8 7.2
2016-Apr-24 03:26N 32°39' W 091°09'  
Track history (hours):
 
Tides and Currents Weather Stations Pressure Air Temp Water Temp Dewpoint Dewpoint Depression Visibility Wind Speed Wind Dir Waves Ship Positions

Britney Lee

Owner: Western Rivers Boat Management, Inc., Paducah, KY. More information available from US FCC via Universal Licensing System and Coast Guard Vessel Documentation Center.

Last reported at 2016-Apr-28 04:24 UTC. Time now 2016-Apr-30 07:09 UTC.
Position N 29°58' W 090°14'.

Length 44 m; draft 3 m.

Type: Tow > 200 m length. MMSI: 367129650.

Date/timePositionNaut miles runAvg speedWind from/ knotsBaromVisibWave heightAir tempDewpointWater temp
2016-Apr-28 04:24N 29°58' W 090°14'3 3.7
2016-Apr-28 03:31N 29°56' W 090°11'0 0.3
2016-Apr-28 02:31N 29°56' W 090°10'4 4.1
2016-Apr-28 01:33N 29°55' W 090°06'5 4.7
2016-Apr-28 00:33N 29°57' W 090°02'6 5.3
2016-Apr-27 23:29N 29°55' W 089°56'3 2.7
2016-Apr-27 22:26N 29°53' W 089°58'4 4.0
2016-Apr-27 21:33N 29°50' W 089°60'0 0.0
2016-Apr-27 20:33N 29°50' W 089°60'1 0.9
2016-Apr-27 19:12N 29°49' W 090°00'6 0.3
2016-Apr-27 01:33N 29°43' W 089°59'7 7.0
2016-Apr-27 00:33N 29°50' W 089°60'6 5.6
2016-Apr-26 23:32N 29°53' W 089°54'7 7.6
2016-Apr-26 22:33N 29°57' W 090°02'6 6.1
2016-Apr-26 21:33N 29°55' W 090°08'5 4.9
2016-Apr-26 20:33N 29°57' W 090°13'  
2016-Apr-24 14:29N 31°41' W 091°24'7 7.7
2016-Apr-24 13:33N 31°48' W 091°21'14 6.9
2016-Apr-24 11:33N 31°58' W 091°11'7 7.5
2016-Apr-24 10:33N 32°02' W 091°04'6 5.6
2016-Apr-24 09:33N 32°07' W 091°07'6 5.7
2016-Apr-24 08:33N 32°09' W 091°00'8 7.9
2016-Apr-24 07:33N 32°16' W 090°57'4 4.4
2016-Apr-24 06:33N 32°21' W 090°57'6 6.2
2016-Apr-24 05:34N 32°26' W 091°02'7 6.7
2016-Apr-24 04:33N 32°32' W 091°06'8 7.2
2016-Apr-24 03:26N 32°39' W 091°09'  

Dump ship's entire track history